Terminal Aerodrome Forecast
Issued by NWS

Home | Current Version | Previous Version | Text Only | Print | Product List | Glossary On
Versions: 1 2 3 4 5 6 7 8 9 10 11 12 13 14 15 16 17 18 19
000
FTUS44 KLZK 181100
TAFBPK
TAF
KBPK 181120Z 1812/1912 12006KT P6SM -DZ SCT005 BKN008 OVC015
      TEMPO 1812/1816 2SM -DZ BR OVC004
     FM181800 VRB05KT 4SM BR BKN008 OVC012
     FM190000 VRB02KT 4SM BR OVC008
     FM190400 06003KT 2SM -DZ BR BKN004 OVC008
      TEMPO 1908/1912 1/2SM FG OVC001=

USA.gov is the U.S. government's official web portal to all federal, state and local government web resources and services.